createdAt,value
2019-04-21T00:00:50.000Z,47.8
2019-04-21T00:02:02.000Z,47.3
2019-04-21T00:03:14.000Z,47.7
2019-04-21T00:04:27.000Z,47.5
2019-04-21T00:05:39.819Z,47.5
2019-04-21T00:06:51.000Z,47.5
2019-04-21T00:08:03.000Z,47.1
2019-04-21T00:09:15.000Z,47.5
2019-04-21T00:10:27.000Z,47.7
2019-04-21T00:11:40.000Z,47.7
2019-04-21T00:12:52.861Z,47.5
2019-04-21T00:15:16.000Z,47.3
2019-04-21T00:16:29.000Z,47.3
2019-04-21T00:17:41.000Z,46.9
2019-04-21T00:18:53.755Z,47.4
2019-04-21T00:20:05.000Z,47.1
2019-04-21T00:21:17.000Z,47
2019-04-21T00:22:30.293Z,47
2019-04-21T00:23:42.000Z,47.3
2019-04-21T00:24:53.000Z,47
2019-04-21T00:26:06.000Z,47.5
2019-04-21T00:27:17.000Z,47.5
2019-04-21T00:28:31.239Z,47.5
2019-04-21T00:29:43.000Z,47.4
2019-04-21T00:30:55.000Z,47.5
2019-04-21T00:32:07.000Z,47.7
2019-04-21T00:33:19.866Z,47.7
2019-04-21T00:34:31.000Z,47.7
2019-04-21T00:35:43.000Z,47.5
2019-04-21T00:36:56.402Z,47.8
2019-04-21T00:38:07.000Z,48.1
2019-04-21T00:39:20.000Z,47.9
2019-04-21T00:40:32.000Z,48.3
2019-04-21T00:41:44.000Z,48.2
2019-04-21T00:42:56.000Z,48.4
2019-04-21T00:44:08.000Z,48.5
2019-04-21T00:45:21.065Z,48.5
2019-04-21T00:46:33.000Z,48.6
2019-04-21T00:47:46.017Z,48.9
2019-04-21T00:48:57.000Z,49
2019-04-21T00:50:10.000Z,49.1
2019-04-21T00:51:22.564Z,49
2019-04-21T00:52:33.000Z,48.9
2019-04-21T00:53:45.000Z,49.1
2019-04-21T00:54:58.000Z,49.3
2019-04-21T00:57:22.000Z,49.4
2019-04-21T00:58:35.644Z,49.5
2019-04-21T00:59:46.000Z,49.7
2019-04-21T01:00:59.000Z,49.6
2019-04-21T01:02:12.000Z,49.5
2019-04-21T01:03:23.000Z,49.6
2019-04-21T01:05:48.742Z,49.4
2019-04-21T01:07:00.923Z,49.5
2019-04-21T01:11:49.639Z,49.5
2019-04-21T01:13:01.816Z,49.4
2019-04-21T01:16:38.356Z,49.5
2019-04-21T01:17:50.541Z,49.7
2019-04-21T01:20:14.905Z,49.9
2019-04-21T01:23:51.595Z,49.9
2019-04-21T01:25:03.631Z,50.3
2019-04-21T01:26:15.832Z,50.5
2019-04-21T01:28:40.213Z,50.5
2019-04-21T01:31:04.580Z,50.5
2019-04-21T01:33:28.958Z,50.7
2019-04-21T01:34:41.150Z,51
2019-04-21T01:38:17.686Z,51.4
2019-04-21T01:39:29.875Z,51.4
2019-04-21T01:40:41.000Z,51.3
2019-04-21T01:41:54.000Z,51.6
2019-04-21T01:43:06.000Z,51.7
2019-04-21T01:44:18.637Z,51.9
2019-04-21T01:45:30.756Z,52
2019-04-21T01:46:41.000Z,51.9
2019-04-21T01:47:54.000Z,52.3
2019-04-21T01:49:07.000Z,52.1
2019-04-21T01:50:18.000Z,52.2
2019-04-21T01:51:31.000Z,51.9
2019-04-21T01:52:43.845Z,52.6
2019-04-21T01:53:55.000Z,52.8
2019-04-21T01:55:07.000Z,52.4
2019-04-21T01:56:19.000Z,52.6
2019-04-21T01:57:31.000Z,52.6
2019-04-21T01:58:44.000Z,53
2019-04-21T02:00:12.000Z,52.8
2019-04-21T02:01:08.000Z,52.6
2019-04-21T02:02:21.000Z,53
2019-04-21T02:03:33.494Z,52.8
2019-04-21T02:04:45.000Z,52.9
2019-04-21T02:05:56.000Z,52.9
2019-04-21T02:07:09.000Z,53.1
2019-04-21T02:08:22.000Z,53.1
2019-04-21T02:09:34.000Z,53.1
2019-04-21T02:10:46.563Z,53.7
2019-04-21T02:11:57.000Z,53.7
2019-04-21T02:13:09.000Z,53.8
2019-04-21T02:14:23.102Z,53.9
2019-04-21T02:15:35.000Z,53.9
2019-04-21T02:16:47.439Z,53.7
2019-04-21T02:17:58.000Z,54.1
2019-04-21T02:19:11.000Z,54.6
2019-04-21T02:20:23.000Z,54.3
2019-04-21T02:21:36.000Z,54.1
2019-04-21T02:22:49.000Z,54.1
2019-04-21T02:23:59.000Z,54.8
2019-04-21T02:25:12.000Z,54.7
2019-04-21T02:26:24.860Z,54.7
2019-04-21T02:27:36.000Z,54.5
2019-04-21T02:28:48.000Z,55
2019-04-21T02:30:00.000Z,55.2
2019-04-21T02:31:13.000Z,54.9
2019-04-21T02:32:25.770Z,54.9
2019-04-21T02:33:36.000Z,54.8
2019-04-21T02:34:50.000Z,55.1
2019-04-21T02:36:01.000Z,53.7
2019-04-21T02:37:14.482Z,54.9
2019-04-21T02:38:25.000Z,54
2019-04-21T02:39:38.000Z,54.4
2019-04-21T02:40:50.000Z,54.6
2019-04-21T02:42:03.000Z,56.1
2019-04-21T02:43:15.000Z,56.5
2019-04-21T02:44:27.557Z,56
2019-04-21T02:45:38.000Z,56.9
2019-04-21T02:46:51.000Z,55.7
2019-04-21T02:48:04.072Z,56.1
2019-04-21T02:49:16.244Z,55.8
2019-04-21T02:50:27.000Z,56.5
2019-04-21T02:51:39.000Z,56.8
2019-04-21T02:52:52.000Z,57.9
2019-04-21T02:54:03.000Z,58.8
2019-04-21T02:55:17.012Z,58
2019-04-21T02:56:29.000Z,58
2019-04-21T02:57:40.000Z,59.1
2019-04-21T02:58:52.000Z,58.8
2019-04-21T03:00:05.000Z,58.8
2019-04-21T03:01:18.001Z,57.7
2019-04-21T03:02:29.000Z,58.2
2019-04-21T03:03:42.386Z,57.8
2019-04-21T03:04:54.000Z,56
2019-04-21T03:06:06.750Z,57.2
2019-04-21T03:07:18.000Z,58.8
2019-04-21T03:08:31.000Z,59.8
2019-04-21T03:09:43.302Z,59.7
2019-04-21T03:10:55.000Z,59.5
2019-04-21T03:12:07.000Z,59.4
2019-04-21T03:13:19.000Z,59
2019-04-21T03:14:32.026Z,59.3
2019-04-21T03:15:44.210Z,59.6
2019-04-21T03:16:56.000Z,58.4
2019-04-21T03:18:08.000Z,58.6
2019-04-21T03:19:20.734Z,58.7
2019-04-21T03:20:31.000Z,58.9
2019-04-21T03:21:45.000Z,58.6
2019-04-21T03:22:57.000Z,58.7
2019-04-21T03:24:08.000Z,59.7
2019-04-21T03:25:22.099Z,59.5
2019-04-21T03:26:33.000Z,60.4
2019-04-21T03:27:45.981Z,60.2
2019-04-21T03:28:57.000Z,60.2
2019-04-21T03:30:10.000Z,60.7
2019-04-21T03:31:22.505Z,60.5
2019-04-21T03:32:34.000Z,60.2
2019-04-21T03:33:46.085Z,59.7
2019-04-21T03:34:58.000Z,59.7
2019-04-21T03:36:10.000Z,59.8
2019-04-21T03:37:23.000Z,59.3
2019-04-21T03:38:35.579Z,59.3
2019-04-21T03:39:46.000Z,59.2
2019-04-21T03:40:59.937Z,59.5
2019-04-21T03:42:12.104Z,59.3
2019-04-21T03:43:24.283Z,59.2
2019-04-21T03:44:36.000Z,58.8
2019-04-21T03:47:00.996Z,58.3
2019-04-21T03:48:12.000Z,58.7
2019-04-21T03:49:25.000Z,59.6
2019-04-21T03:50:36.000Z,59.6
2019-04-21T03:51:48.000Z,59.8
2019-04-21T03:53:01.679Z,59.6
2019-04-21T03:54:13.000Z,59.8
2019-04-21T03:55:25.000Z,59.2
2019-04-21T03:56:37.000Z,59.7
2019-04-21T03:57:50.034Z,59
2019-04-21T03:59:02.000Z,59.4
2019-04-21T04:00:14.000Z,60.7
2019-04-21T04:01:25.000Z,59.8
2019-04-21T04:02:37.000Z,59.5
2019-04-21T04:03:51.190Z,61.1
2019-04-21T04:05:03.000Z,61.2
2019-04-21T04:06:15.540Z,61.2
2019-04-21T04:07:26.000Z,61.1
2019-04-21T04:09:51.000Z,59.9
2019-04-21T04:11:04.000Z,60.1
2019-04-21T04:12:15.000Z,58.8
2019-04-21T04:13:28.561Z,59.9
2019-04-21T04:14:40.734Z,60.2
2019-04-21T04:15:52.000Z,60.2
2019-04-21T04:17:04.000Z,60.3
2019-04-21T04:18:16.000Z,60.5
2019-04-21T04:19:29.458Z,60.3
2019-04-21T04:20:41.000Z,60.4
2019-04-21T04:21:53.000Z,60.3
2019-04-21T04:23:04.000Z,60.2
2019-04-21T04:24:18.000Z,60.6
2019-04-21T04:25:30.318Z,60.1
2019-04-21T04:26:42.000Z,61.9
2019-04-21T04:27:54.000Z,61.9
2019-04-21T04:29:05.000Z,61.8
2019-04-21T04:30:17.000Z,62.2
2019-04-21T04:31:31.162Z,61.3
2019-04-21T04:32:43.334Z,61.3
2019-04-21T04:33:55.000Z,61.4
2019-04-21T04:35:07.000Z,61.6
2019-04-21T04:36:19.858Z,62
2019-04-21T04:37:32.018Z,61.6
2019-04-21T04:38:44.000Z,61.3
2019-04-21T04:39:55.000Z,60.6
2019-04-21T04:41:08.553Z,60.8
2019-04-21T04:42:20.731Z,60
2019-04-21T04:43:32.903Z,60.4
2019-04-21T04:45:57.264Z,58.8
2019-04-21T04:47:09.448Z,58.7
2019-04-21T04:48:21.000Z,60
2019-04-21T04:49:33.000Z,59.9
2019-04-21T04:50:45.000Z,61.3
2019-04-21T04:51:58.157Z,60.6
2019-04-21T04:53:10.000Z,61.1
2019-04-21T04:54:22.000Z,60.3
2019-04-21T04:55:34.000Z,60.4
2019-04-21T04:56:46.000Z,61.5
2019-04-21T04:57:57.000Z,61.6
2019-04-21T04:59:10.000Z,60.9
2019-04-21T05:00:22.000Z,60.4
2019-04-21T05:02:47.000Z,61.2
2019-04-21T05:03:59.000Z,60.9
2019-04-21T05:05:12.073Z,60.7
2019-04-21T05:06:23.000Z,60.6
2019-04-21T05:07:36.000Z,60.6
2019-04-21T05:08:48.588Z,60.1
2019-04-21T05:10:00.759Z,60.5
2019-04-21T05:11:12.000Z,60.6
2019-04-21T05:12:24.000Z,60.5
2019-04-21T05:13:37.000Z,60.2
2019-04-21T05:14:49.000Z,60
2019-04-21T05:16:01.061Z,59.9
2019-04-21T05:18:24.000Z,59.8
2019-04-21T05:19:37.000Z,59.8
2019-04-21T05:20:50.299Z,59.6
2019-04-21T05:22:02.000Z,59.2
2019-04-21T05:23:13.000Z,59.4
2019-04-21T05:24:26.795Z,59
2019-04-21T05:25:38.000Z,58.6
2019-04-21T05:26:51.014Z,58.5
2019-04-21T05:28:02.000Z,58.4
2019-04-21T05:29:15.000Z,58
2019-04-21T05:30:27.000Z,58.6
2019-04-21T05:31:39.818Z,58
2019-04-21T05:32:50.000Z,58
2019-04-21T05:34:03.000Z,57.8
2019-04-21T05:35:16.321Z,57.7
2019-04-21T05:36:28.000Z,57.8
2019-04-21T05:37:40.658Z,57.8
2019-04-21T05:38:51.000Z,58.2
2019-04-21T05:40:04.000Z,58
2019-04-21T05:41:16.000Z,58.2
2019-04-21T05:42:28.000Z,58.7
2019-04-21T05:43:41.000Z,59.1
2019-04-21T05:44:53.000Z,59.8
2019-04-21T05:46:05.000Z,60
2019-04-21T05:47:18.033Z,60.5
2019-04-21T05:48:30.000Z,59.6
2019-04-21T05:49:42.000Z,59.5
2019-04-21T05:50:54.000Z,59.1
2019-04-21T05:53:18.000Z,56.6
2019-04-21T05:54:31.000Z,55.8
2019-04-21T05:55:43.000Z,54
2019-04-21T05:56:54.000Z,53.1
2019-04-21T05:58:06.000Z,53.2
2019-04-21T05:59:18.000Z,52.6
2019-04-21T06:01:44.000Z,52.3
2019-04-21T06:02:56.000Z,52.4
2019-04-21T06:04:08.000Z,52.4
2019-04-21T06:05:20.644Z,51.7
2019-04-21T06:06:31.000Z,50.7
2019-04-21T06:07:43.000Z,51
2019-04-21T06:08:56.000Z,51.1
2019-04-21T06:10:09.000Z,50
2019-04-21T06:11:20.000Z,49.9
2019-04-21T06:12:33.694Z,49.8
2019-04-21T06:13:44.000Z,49.1
2019-04-21T06:14:57.000Z,49.3
2019-04-21T06:16:09.000Z,48.8
2019-04-21T06:17:22.000Z,48.9
2019-04-21T06:18:34.000Z,48.1
2019-04-21T06:19:46.000Z,48.2
2019-04-21T06:20:58.000Z,48.1
2019-04-21T06:22:11.000Z,47.9
2019-04-21T06:23:23.000Z,48.2
2019-04-21T06:24:35.428Z,48.3
2019-04-21T06:25:47.000Z,48.1
2019-04-21T06:26:58.000Z,48
2019-04-21T06:28:11.000Z,47.5
2019-04-21T06:29:24.000Z,47.5
2019-04-21T06:30:36.000Z,47.3
2019-04-21T06:31:47.000Z,47.2
2019-04-21T06:32:59.000Z,47.4
2019-04-21T06:34:12.000Z,47.2
2019-04-21T06:35:23.000Z,47.2
2019-04-21T06:36:37.000Z,47
2019-04-21T06:37:49.000Z,47.7
2019-04-21T06:39:00.000Z,47.4
2019-04-21T06:40:13.000Z,47.3
2019-04-21T06:41:25.000Z,46.9
2019-04-21T06:42:37.959Z,46.8
2019-04-21T06:43:50.000Z,46.7
2019-04-21T06:45:02.000Z,46.6
2019-04-21T06:46:14.000Z,46.3
2019-04-21T06:47:26.000Z,46.3
2019-04-21T06:48:38.000Z,46.3
2019-04-21T06:49:49.000Z,46.8
2019-04-21T06:51:02.000Z,46.6
2019-04-21T06:52:15.000Z,46.7
2019-04-21T06:53:26.000Z,46.9
2019-04-21T06:54:38.000Z,46.8
2019-04-21T06:55:50.000Z,46.4
2019-04-21T06:57:04.000Z,46
2019-04-21T06:58:16.242Z,46.1
2019-04-21T06:59:28.000Z,46.3
2019-04-21T07:00:39.000Z,45.8
2019-04-21T07:01:51.000Z,45.9
2019-04-21T07:03:04.000Z,45.8
2019-04-21T07:04:17.116Z,45.8
2019-04-21T07:05:28.000Z,45.6
2019-04-21T07:06:41.000Z,45
2019-04-21T07:07:53.000Z,44.9
2019-04-21T07:09:05.781Z,44.8
2019-04-21T07:10:17.000Z,44.7
2019-04-21T07:11:30.000Z,45.2
2019-04-21T07:13:54.000Z,45.3
2019-04-21T07:15:06.637Z,45.4
2019-04-21T07:16:18.000Z,45.5
2019-04-21T07:17:31.022Z,45
2019-04-21T07:18:42.000Z,45.1
2019-04-21T07:19:55.331Z,45.3
2019-04-21T07:21:07.000Z,45.4
2019-04-21T07:22:18.000Z,44.8
2019-04-21T07:23:31.845Z,44.6
2019-04-21T07:24:43.000Z,44.5
2019-04-21T07:25:56.199Z,44.8
2019-04-21T07:27:08.372Z,44.5
2019-04-21T07:28:19.000Z,44.3
2019-04-21T07:30:44.885Z,44.1
2019-04-21T07:31:57.000Z,44.4
2019-04-21T07:33:08.000Z,44.1
2019-04-21T07:34:21.000Z,44
2019-04-21T07:35:33.574Z,43.6
2019-04-21T07:36:44.000Z,43.2
2019-04-21T07:37:57.000Z,42.9
2019-04-21T07:39:10.000Z,42.8
2019-04-21T07:40:21.000Z,43
2019-04-21T07:41:34.045Z,43.3
2019-04-21T07:42:46.000Z,43.6
2019-04-21T07:43:58.000Z,43.9
2019-04-21T07:45:10.000Z,43.7
2019-04-21T07:46:23.000Z,43.4
2019-04-21T07:47:35.000Z,43.4
2019-04-21T07:48:46.000Z,43
2019-04-21T07:49:59.000Z,43.2
2019-04-21T07:51:10.000Z,43.3
2019-04-21T07:52:24.057Z,43.2
2019-04-21T07:53:36.000Z,42.3
2019-04-21T07:54:48.000Z,41.9
2019-04-21T07:56:00.000Z,42
2019-04-21T07:57:11.000Z,42
2019-04-21T07:58:24.000Z,42
2019-04-21T07:59:36.000Z,42.4
2019-04-21T08:00:49.000Z,42.5
2019-04-21T08:02:01.000Z,42.4
2019-04-21T08:03:13.557Z,42.1
2019-04-21T08:04:25.733Z,42
2019-04-21T08:05:37.000Z,41.4
2019-04-21T08:06:49.000Z,40.5
2019-04-21T08:08:02.000Z,39.6
2019-04-21T08:09:14.000Z,38.6
2019-04-21T08:10:26.000Z,38.9
2019-04-21T08:11:38.000Z,39.4
2019-04-21T08:12:50.000Z,39.7
2019-04-21T08:14:03.000Z,38.5
2019-04-21T08:15:15.000Z,37.8
2019-04-21T08:16:26.000Z,37.3
2019-04-21T08:17:39.000Z,36.8
2019-04-21T08:18:50.000Z,36.2
2019-04-21T08:20:03.000Z,35.3
2019-04-21T08:21:16.000Z,35.2
2019-04-21T08:22:27.000Z,35
2019-04-21T08:23:40.000Z,35.2
2019-04-21T08:24:52.000Z,35.6
2019-04-21T08:26:03.000Z,35.4
2019-04-21T08:27:16.000Z,35.3
2019-04-21T08:28:29.114Z,35.9
2019-04-21T08:29:41.282Z,36.5
2019-04-21T08:30:53.000Z,36.6
2019-04-21T08:32:04.000Z,37.1
2019-04-21T08:33:17.000Z,35.1
2019-04-21T08:34:29.000Z,34.2
2019-04-21T08:35:41.000Z,32.8
2019-04-21T08:36:53.000Z,31.9
2019-04-21T08:38:06.000Z,31.2
2019-04-21T08:39:18.665Z,31.9
2019-04-21T08:40:29.000Z,31.9
2019-04-21T08:41:42.995Z,31.2
2019-04-21T08:42:54.000Z,31.1
2019-04-21T08:44:07.000Z,31
2019-04-21T08:45:18.000Z,30.5
2019-04-21T08:46:31.687Z,31.7
2019-04-21T08:47:43.000Z,32.3
2019-04-21T08:48:54.000Z,32.4
2019-04-21T08:50:08.000Z,32.2
2019-04-21T08:51:19.000Z,32.6
2019-04-21T08:52:31.000Z,31.6
2019-04-21T08:53:43.000Z,30.7
2019-04-21T08:54:56.000Z,31.1
2019-04-21T08:56:09.000Z,32.2
2019-04-21T08:57:20.000Z,32.9
2019-04-21T08:58:32.000Z,33
2019-04-21T08:59:44.000Z,33.6
2019-04-21T09:00:56.000Z,34.4
2019-04-21T09:02:09.892Z,33.8
2019-04-21T09:03:21.000Z,33.2
2019-04-21T09:04:33.000Z,33.1
2019-04-21T09:05:46.000Z,32.8
2019-04-21T09:06:58.582Z,33.4
2019-04-21T09:08:10.000Z,34.2
2019-04-21T09:09:22.938Z,34.2
2019-04-21T09:10:35.101Z,34.2
2019-04-21T09:11:47.000Z,33.1
2019-04-21T09:12:59.000Z,32.7
2019-04-21T09:14:11.661Z,31.2
2019-04-21T09:15:23.000Z,30.7
2019-04-21T09:16:35.000Z,31.1
2019-04-21T09:17:48.000Z,31.8
2019-04-21T09:18:59.000Z,32.3
2019-04-21T09:20:12.000Z,30.9
2019-04-21T09:21:23.000Z,29.4
2019-04-21T09:22:36.810Z,28.6
2019-04-21T09:23:48.000Z,28.5
2019-04-21T09:25:01.000Z,28.3
2019-04-21T09:26:13.000Z,29.2
2019-04-21T09:27:24.000Z,29.5
2019-04-21T09:28:36.000Z,30.5
2019-04-21T09:29:49.835Z,31.1
2019-04-21T09:31:00.000Z,31.1
2019-04-21T09:32:14.000Z,31.8
2019-04-21T09:33:25.000Z,31.1
2019-04-21T09:34:37.000Z,30.3
2019-04-21T09:35:50.674Z,28.7
2019-04-21T09:38:13.000Z,27.3
2019-04-21T09:39:26.000Z,26.9
2019-04-21T09:40:39.000Z,26.4
2019-04-21T09:41:51.000Z,27.3
2019-04-21T09:44:14.000Z,26.4
2019-04-21T09:45:27.000Z,26.3
2019-04-21T09:46:40.000Z,26.3
2019-04-21T09:49:04.000Z,26.1
2019-04-21T09:50:16.000Z,26.4
2019-04-21T09:51:27.000Z,25.8
2019-04-21T09:52:40.000Z,25.5
2019-04-21T09:53:52.000Z,25.5
2019-04-21T09:55:05.405Z,26.5
2019-04-21T09:56:17.580Z,25.5
2019-04-21T09:57:29.000Z,25.9
2019-04-21T09:58:40.000Z,26.6
2019-04-21T09:59:54.072Z,26.4
2019-04-21T10:01:06.241Z,26.7
2019-04-21T10:02:17.000Z,26.7
2019-04-21T10:03:29.000Z,26.3
2019-04-21T10:04:41.000Z,26.4
2019-04-21T10:05:54.000Z,26.1
2019-04-21T10:07:06.000Z,26
2019-04-21T10:08:19.251Z,26
2019-04-21T10:09:30.000Z,26.6
2019-04-21T10:10:42.000Z,26.5
2019-04-21T10:11:54.000Z,27.5
2019-04-21T10:13:07.933Z,27.8
2019-04-21T10:14:20.095Z,26.9
2019-04-21T10:15:31.000Z,26.8
2019-04-21T10:16:44.000Z,26.8
2019-04-21T10:17:56.610Z,27.1
2019-04-21T10:19:07.000Z,27.5
2019-04-21T10:20:19.000Z,27.9
2019-04-21T10:21:33.108Z,28.2
2019-04-21T10:22:45.283Z,27.9
2019-04-21T10:23:57.000Z,28.4
2019-04-21T10:25:09.617Z,28
2019-04-21T10:26:20.000Z,28.1
2019-04-21T10:27:33.000Z,28.1
2019-04-21T10:28:45.000Z,28.6
2019-04-21T10:29:58.000Z,28.8
2019-04-21T10:31:09.000Z,28.1
2019-04-21T10:32:22.000Z,28
2019-04-21T10:33:33.000Z,27.7
2019-04-21T10:34:46.000Z,28
2019-04-21T10:35:59.000Z,28.2
2019-04-21T10:37:10.000Z,28.6
2019-04-21T10:38:23.000Z,28
2019-04-21T10:39:35.000Z,27.5
2019-04-21T10:40:47.810Z,26.6
2019-04-21T10:41:59.000Z,26.7
2019-04-21T10:43:11.000Z,27.1
2019-04-21T10:44:24.330Z,26.4
2019-04-21T10:45:36.000Z,25.6
2019-04-21T10:46:48.000Z,25.8
2019-04-21T10:47:59.000Z,25.5
2019-04-21T10:49:12.000Z,25.4
2019-04-21T10:50:24.000Z,24.7
2019-04-21T10:51:36.000Z,24.7
2019-04-21T10:52:49.000Z,24.8
2019-04-21T10:54:01.000Z,24.5
2019-04-21T10:55:13.000Z,24.5
2019-04-21T10:56:25.000Z,24.8
2019-04-21T10:57:38.000Z,24.9
2019-04-21T10:58:50.000Z,24.8
2019-04-21T11:00:01.000Z,24.9
2019-04-21T11:01:13.000Z,24.4
2019-04-21T11:02:26.968Z,24.4
2019-04-21T11:03:39.000Z,24.8
2019-04-21T11:04:51.000Z,24.4
2019-04-21T11:06:03.504Z,24.3
2019-04-21T11:07:15.000Z,24.1
2019-04-21T11:08:27.000Z,24.3
2019-04-21T11:09:39.000Z,24.5
2019-04-21T11:10:52.222Z,24.6
2019-04-21T11:12:04.399Z,24.4
2019-04-21T11:13:16.000Z,24.5
2019-04-21T11:14:28.000Z,24.8
2019-04-21T11:15:39.000Z,24.6
2019-04-21T11:16:53.000Z,24
2019-04-21T11:18:05.305Z,24.6
2019-04-21T11:19:16.000Z,24.7
2019-04-21T11:20:29.000Z,24.4
2019-04-21T11:21:41.000Z,24.2
2019-04-21T11:22:53.000Z,24.8
2019-04-21T11:24:06.000Z,24
2019-04-21T11:25:18.000Z,24.7
2019-04-21T11:26:30.000Z,25.4
2019-04-21T11:27:42.000Z,24.8
2019-04-21T11:28:54.919Z,25.8
2019-04-21T11:30:06.000Z,26.2
2019-04-21T11:31:19.000Z,26.2
2019-04-21T11:32:30.000Z,25.6
2019-04-21T11:33:42.000Z,25.1
2019-04-21T11:34:55.000Z,24.7
2019-04-21T11:36:07.000Z,24.7
2019-04-21T11:37:19.000Z,25.1
2019-04-21T11:38:32.000Z,24.4
2019-04-21T11:39:44.000Z,24.8
2019-04-21T11:40:56.000Z,24.5
2019-04-21T11:42:08.000Z,24.6
2019-04-21T11:43:20.000Z,24.1
2019-04-21T11:44:32.000Z,24.1
2019-04-21T11:45:44.000Z,24.1
2019-04-21T11:48:09.000Z,25.1
2019-04-21T11:49:20.000Z,24.9
2019-04-21T11:50:33.000Z,25
2019-04-21T11:51:46.000Z,25.1
2019-04-21T11:52:58.000Z,25
2019-04-21T11:54:09.000Z,25.2
2019-04-21T11:55:21.000Z,24.9
2019-04-21T11:56:34.000Z,25.2
2019-04-21T11:57:46.000Z,25.7
2019-04-21T11:58:59.000Z,25.9
2019-04-21T12:00:11.000Z,25.9
2019-04-21T12:01:23.701Z,26.5
2019-04-21T12:02:35.000Z,25.9
2019-04-21T12:03:47.000Z,26.5
2019-04-21T12:06:12.000Z,25.6
2019-04-21T12:07:24.000Z,25.6
2019-04-21T12:08:36.000Z,25.9
2019-04-21T12:09:48.000Z,25.7
2019-04-21T12:11:00.000Z,25.5
2019-04-21T12:12:12.000Z,24.9
2019-04-21T12:13:25.000Z,24.3
2019-04-21T12:17:00.000Z,24.6
2019-04-21T12:18:13.000Z,24.3
2019-04-21T12:19:26.000Z,24.9
2019-04-21T12:20:37.000Z,25.3
2019-04-21T12:21:50.973Z,25.6
2019-04-21T12:23:02.887Z,25.6
2019-04-21T12:24:14.000Z,25.5
2019-04-21T12:25:26.000Z,25.4
2019-04-21T12:26:39.000Z,25.2
2019-04-21T12:27:51.000Z,25.2
2019-04-21T12:29:02.000Z,25.1
2019-04-21T12:30:15.000Z,24.6
2019-04-21T12:31:27.000Z,24.9
2019-04-21T12:32:39.000Z,25.2
2019-04-21T12:33:51.000Z,25.4
2019-04-21T12:35:03.000Z,25
2019-04-21T12:36:15.000Z,25.4
2019-04-21T12:37:27.000Z,25.5
2019-04-21T12:38:40.000Z,24.9
2019-04-21T12:39:52.000Z,24.9
2019-04-21T12:41:04.000Z,25.1
2019-04-21T12:43:28.000Z,24.5
2019-04-21T12:44:41.000Z,24.1
2019-04-21T12:45:53.000Z,24.1
2019-04-21T12:47:05.000Z,24.4
2019-04-21T12:48:17.000Z,24.3
2019-04-21T12:49:30.000Z,24.1
2019-04-21T12:50:42.000Z,24.1
2019-04-21T12:51:54.000Z,23.9
2019-04-21T12:53:07.208Z,24.3
2019-04-21T12:54:19.372Z,25
2019-04-21T12:55:30.000Z,25.2
2019-04-21T12:56:42.000Z,24.8
2019-04-21T12:57:55.000Z,24.6
2019-04-21T12:59:07.000Z,24.6
2019-04-21T13:00:20.254Z,24.1
2019-04-21T13:01:31.000Z,24.3
2019-04-21T13:02:44.000Z,24.6
2019-04-21T13:03:56.000Z,24.9
2019-04-21T13:05:08.936Z,24.9
2019-04-21T13:06:20.000Z,25.6
2019-04-21T13:07:32.000Z,25.2
2019-04-21T13:08:44.000Z,25.8
2019-04-21T13:09:57.000Z,24.9
2019-04-21T13:11:08.000Z,24.3
2019-04-21T13:12:20.000Z,24.4
2019-04-21T13:13:33.000Z,24.4
2019-04-21T13:14:46.000Z,24.6
2019-04-21T13:15:58.000Z,24.4
2019-04-21T13:17:10.000Z,24.3
2019-04-21T13:18:21.000Z,24.6
2019-04-21T13:19:34.000Z,24.4
2019-04-21T13:20:46.000Z,24.5
2019-04-21T13:21:59.000Z,24.3
2019-04-21T13:23:10.000Z,24.6
2019-04-21T13:24:23.073Z,25.1
2019-04-21T13:25:35.000Z,24.8
2019-04-21T13:26:48.101Z,25.1
2019-04-21T13:27:59.000Z,25.1
2019-04-21T13:29:12.000Z,25.1
2019-04-21T13:30:24.000Z,24.9
2019-04-21T13:31:36.763Z,25.2
2019-04-21T13:32:48.949Z,25.4
2019-04-21T13:34:00.000Z,25.8
2019-04-21T13:35:13.000Z,25.9
2019-04-21T13:36:25.500Z,25.8
2019-04-21T13:37:36.000Z,26.1
2019-04-21T13:38:49.000Z,25.1
2019-04-21T13:40:00.000Z,24.9
2019-04-21T13:41:13.000Z,24.2
2019-04-21T13:42:26.000Z,24.4
2019-04-21T13:43:38.000Z,24.3
2019-04-21T13:44:50.000Z,24.6
2019-04-21T13:46:02.935Z,24.9
2019-04-21T13:47:25.000Z,25.4
2019-04-21T13:48:26.000Z,25.4
2019-04-21T13:49:39.000Z,24.5
2019-04-21T13:50:51.643Z,24.3
2019-04-21T13:52:03.000Z,24.8
2019-04-21T13:53:14.000Z,24.8
2019-04-21T13:54:27.000Z,24.9
2019-04-21T13:55:39.000Z,24.6
2019-04-21T13:56:52.000Z,24.9
2019-04-21T13:58:03.000Z,24.3
2019-04-21T13:59:16.888Z,24.6
2019-04-21T14:00:28.000Z,24.5
2019-04-21T14:01:41.239Z,24.4
2019-04-21T14:02:52.000Z,24.7
2019-04-21T14:04:04.000Z,25.1
2019-04-21T14:05:16.000Z,25.3
2019-04-21T14:06:29.000Z,25
2019-04-21T14:07:41.000Z,25.6
2019-04-21T14:08:53.000Z,25.4
2019-04-21T14:10:06.000Z,25.5
2019-04-21T14:11:17.000Z,25.4
2019-04-21T14:12:29.000Z,25.2
2019-04-21T14:13:41.000Z,25
2019-04-21T14:14:54.000Z,24.7
2019-04-21T14:16:07.000Z,25
2019-04-21T14:17:18.000Z,25.1
2019-04-21T14:18:31.000Z,24.4
2019-04-21T14:19:43.887Z,24.5
2019-04-21T14:20:55.000Z,25.1
2019-04-21T14:22:07.000Z,24.5
2019-04-21T14:23:19.000Z,24.6
2019-04-21T14:24:32.000Z,24.7
2019-04-21T14:25:44.000Z,24.9
2019-04-21T14:26:55.000Z,25.3
2019-04-21T14:28:09.119Z,25.3
2019-04-21T14:29:20.000Z,25.3
2019-04-21T14:30:32.000Z,24.8
2019-04-21T14:31:44.000Z,24.5
2019-04-21T14:32:57.828Z,24.5
2019-04-21T14:34:08.000Z,24.6
2019-04-21T14:35:22.000Z,24.6
2019-04-21T14:36:34.000Z,25
2019-04-21T14:37:45.000Z,24.9
2019-04-21T14:38:58.000Z,25.3
2019-04-21T14:40:09.000Z,25.1
2019-04-21T14:41:23.039Z,25.7
2019-04-21T14:42:34.000Z,25.3
2019-04-21T14:43:46.000Z,24.9
2019-04-21T14:44:59.557Z,24.5
2019-04-21T14:46:11.000Z,24.7
2019-04-21T14:47:23.911Z,24.6
2019-04-21T14:48:36.000Z,24.3
2019-04-21T14:49:48.000Z,24.5
2019-04-21T14:51:00.000Z,24.7
2019-04-21T14:52:12.000Z,25
2019-04-21T14:53:24.000Z,25.2
2019-04-21T14:54:36.000Z,25.3
2019-04-21T14:55:49.000Z,25.4
2019-04-21T14:57:00.000Z,25.4
2019-04-21T14:58:13.000Z,25.3
2019-04-21T14:59:25.000Z,25.7
2019-04-21T15:00:37.000Z,25.4
2019-04-21T15:01:48.000Z,25.5
2019-04-21T15:03:02.167Z,25.6
2019-04-21T15:04:13.000Z,25.4
2019-04-21T15:05:25.000Z,25.8
2019-04-21T15:06:38.000Z,25.6
2019-04-21T15:07:50.883Z,25.4
2019-04-21T15:10:14.000Z,24.9
2019-04-21T15:11:27.390Z,24.8
2019-04-21T15:12:38.000Z,24.6
2019-04-21T15:13:51.000Z,24.6
2019-04-21T15:16:16.009Z,24.6
2019-04-21T15:17:28.000Z,24.6
2019-04-21T15:18:40.000Z,25
2019-04-21T15:19:51.000Z,25.1
2019-04-21T15:21:04.000Z,24.9
2019-04-21T15:22:16.982Z,24.6
2019-04-21T15:23:28.000Z,24.2
2019-04-21T15:24:40.000Z,23.7
2019-04-21T15:25:52.000Z,24.1
2019-04-21T15:27:05.000Z,24.5
2019-04-21T15:28:16.000Z,24.8
2019-04-21T15:29:29.000Z,24.8
2019-04-21T15:30:42.231Z,24.5
2019-04-21T15:31:54.409Z,24.2
2019-04-21T15:33:06.594Z,24.5
2019-04-21T15:34:17.000Z,24.3
2019-04-21T15:35:30.000Z,23.7
2019-04-21T15:36:43.000Z,24
2019-04-21T15:37:54.000Z,24.3
2019-04-21T15:39:07.000Z,23.6
2019-04-21T15:40:19.000Z,23.3
2019-04-21T15:41:31.000Z,23.7
2019-04-21T15:42:43.000Z,23.6
2019-04-21T15:43:56.000Z,24
2019-04-21T15:45:08.000Z,24.2
2019-04-21T15:46:19.000Z,24.6
2019-04-21T15:47:32.000Z,23.8
2019-04-21T15:48:43.000Z,24.1
2019-04-21T15:49:56.000Z,24.5
2019-04-21T15:51:09.000Z,24.8
2019-04-21T15:52:21.000Z,24.1
2019-04-21T15:53:33.632Z,24.4
2019-04-21T15:54:44.000Z,25
2019-04-21T15:55:57.000Z,24.4
2019-04-21T15:57:10.000Z,24.7
2019-04-21T15:58:22.035Z,24.4
2019-04-21T15:59:33.000Z,24.2
2019-04-21T16:00:45.000Z,24
2019-04-21T16:01:58.000Z,23.9
2019-04-21T16:03:10.000Z,23.5
2019-04-21T16:04:22.000Z,23.8
2019-04-21T16:05:34.000Z,23.5
2019-04-21T16:06:46.000Z,23.9
2019-04-21T16:07:58.000Z,24.1
2019-04-21T16:09:11.000Z,23.6
2019-04-21T16:10:23.000Z,23.6
2019-04-21T16:11:36.000Z,24.1
2019-04-21T16:12:48.535Z,24.3
2019-04-21T16:13:59.000Z,24.3
2019-04-21T16:15:12.880Z,24
2019-04-21T16:16:24.000Z,24.5
2019-04-21T16:17:36.000Z,24.6
2019-04-21T16:18:49.000Z,24.8
2019-04-21T16:20:00.000Z,24.6
2019-04-21T16:21:13.000Z,25.3
2019-04-21T16:22:24.000Z,24.7
2019-04-21T16:24:50.321Z,24
2019-04-21T16:26:01.000Z,24.3
2019-04-21T16:27:13.000Z,23.9
2019-04-21T16:28:26.000Z,24
2019-04-21T16:29:38.000Z,24.5
2019-04-21T16:30:50.000Z,24.5
2019-04-21T16:32:03.000Z,24.8
2019-04-21T16:33:14.000Z,25
2019-04-21T16:34:27.000Z,24.7
2019-04-21T16:35:39.000Z,24.5
2019-04-21T16:36:51.000Z,24.8
2019-04-21T16:38:04.286Z,25.3
2019-04-21T16:39:16.462Z,24.9
2019-04-21T16:40:33.000Z,25.3
2019-04-21T16:41:39.000Z,24.9
2019-04-21T16:42:52.000Z,25.5
2019-04-21T16:44:04.000Z,25.6
2019-04-21T16:45:16.000Z,25.6
2019-04-21T16:46:28.000Z,25.6
2019-04-21T16:47:40.000Z,25.9
2019-04-21T16:48:53.000Z,26.1
2019-04-21T16:50:05.000Z,25.4